Time;durP1;ratioP1;P1;durP2;ratioP2;P2;SDS_P1;SDS_P2;PMS_P1;PMS_P2;Temp;Humidity;BMP_temperature;BMP_pressure;BME280_temperature;BME280_humidity;BME280_pressure;Samples;Min_cycle;Max_cycle;Signal;HPM_P1;HPM_P2
2021/07/07 00:01:16;;;;;;;;;4.25;3.00;;;;;18.93;56.43;100877.00;5000853;28;45273;-94
2021/07/07 00:03:42;;;;;;;;;2.00;2.00;;;;;19.21;56.27;100923.28;5001368;28;45173;-95
2021/07/07 00:06:08;;;;;;;;;2.00;2.00;;;;;18.98;56.70;100890.16;5015208;28;45027;-94
2021/07/07 00:08:34;;;;;;;;;3.00;2.50;;;;;19.06;56.57;100917.47;5020712;28;46705;-95
2021/07/07 00:11:03;;;;;;;;;2.25;1.75;;;;;19.08;56.60;100925.50;5022642;28;45394;-94
2021/07/07 00:13:29;;;;;;;;;3.00;3.00;;;;;19.36;57.12;100986.22;5025060;28;45251;-95
2021/07/07 00:15:55;;;;;;;;;2.25;2.25;;;;;18.82;56.56;100920.69;5028751;28;45331;-95
2021/07/07 00:18:21;;;;;;;;;4.00;4.00;;;;;18.82;57.06;100920.69;5043216;28;46870;-94
2021/07/07 00:20:54;;;;;;;;;3.50;3.50;;;;;19.05;56.71;100955.72;5029000;28;45422;-95
2021/07/07 00:37:06;;;;;;;;;3.50;3.50;;;;;19.01;57.77;100970.63;4903022;29;45472;-95
2021/07/07 00:39:31;;;;;;;;;1.50;1.50;;;;;18.72;56.70;100923.47;4916081;28;45428;-95
2021/07/07 01:06:08;;;;;;;;;3.50;3.00;;;;;18.40;58.57;100908.41;4649418;30;45787;-95
2021/07/07 01:08:33;;;;;;;;;4.00;4.00;;;;;18.40;57.79;100908.41;4722512;30;46990;-95
2021/07/07 01:10:59;;;;;;;;;2.25;2.25;;;;;18.55;57.96;100935.97;4712013;30;45342;-94
2021/07/07 01:13:25;;;;;;;;;2.00;2.00;;;;;18.59;58.46;100944.69;4702806;30;45594;-94
2021/07/07 01:15:54;;;;;;;;;2.25;2.00;;;;;18.91;57.91;101014.16;4687201;30;45489;-95
2021/07/07 01:18:20;;;;;;;;;2.00;2.00;;;;;18.47;57.81;100946.72;4686052;30;47957;-95
2021/07/07 01:20:48;;;;;;;;;2.75;2.75;;;;;18.56;58.21;100962.16;4701446;30;45272;-93
2021/07/07 01:23:14;;;;;;;;;2.75;1.75;;;;;18.33;58.20;100920.84;4701615;30;45421;-95
2021/07/07 01:25:39;;;;;;;;;3.00;3.00;;;;;18.14;58.08;100911.75;4707704;30;45583;-95
2021/07/07 01:28:06;;;;;;;;;1.75;1.50;;;;;18.19;58.15;100922.19;4704115;30;46966;-95
2021/07/07 01:30:32;;;;;;;;;2.00;2.00;;;;;18.19;59.21;100921.31;4738110;29;45573;-95
2021/07/07 01:32:59;;;;;;;;;2.00;2.00;;;;;18.17;59.02;100921.47;4763036;29;45414;-95
2021/07/07 01:35:25;;;;;;;;;3.50;2.25;;;;;18.39;58.74;100958.34;4805252;29;45333;-96
2021/07/07 01:37:52;;;;;;;;;3.25;2.50;;;;;18.60;59.01;100976.31;4814852;29;47165;-96
2021/07/07 01:40:21;;;;;;;;;1.00;1.00;;;;;18.47;59.60;100963.03;4834855;29;45510;-96
2021/07/07 01:42:47;;;;;;;;;2.25;2.00;;;;;18.71;58.71;101000.63;4908254;28;45562;-95
2021/07/07 01:45:15;;;;;;;;;4.00;3.50;;;;;18.69;59.17;101008.06;5001621;28;45358;-94
2021/07/07 01:47:42;;;;;;;;;3.50;2.50;;;;;18.14;59.21;100917.19;5001019;28;47288;-95
2021/07/07 01:50:11;;;;;;;;;2.25;2.25;;;;;18.47;59.20;100979.34;5001508;28;45238;-95
2021/07/07 01:52:37;;;;;;;;;1.50;1.50;;;;;18.33;59.01;100956.19;5001052;28;45422;-94
2021/07/07 01:55:09;;;;;;;;;1.50;1.50;;;;;18.51;59.66;100993.50;5001474;28;45358;-96
2021/07/07 01:57:43;;;;;;;;;2.00;2.00;;;;;17.98;59.07;100920.47;5001291;28;46772;-94
2021/07/07 02:00:18;;;;;;;;;2.50;2.50;;;;;17.93;59.64;100920.03;5001550;28;44956;-94
2021/07/07 02:02:46;;;;;;;;;3.00;3.00;;;;;17.86;59.91;100916.16;5000650;28;44894;-94
2021/07/07 02:05:12;;;;;;;;;1.75;1.00;;;;;18.07;59.51;100964.09;5001364;28;45638;-96
2021/07/07 02:07:41;;;;;;;;;2.25;2.25;;;;;17.75;59.60;100913.59;5000954;28;47316;-95
2021/07/07 02:10:10;;;;;;;;;4.25;2.50;;;;;18.07;59.86;100969.53;5001009;28;45506;-93
2021/07/07 02:12:36;;;;;;;;;3.00;3.00;;;;;17.74;59.57;100912.72;5002032;28;45366;-95
2021/07/07 02:15:38;;;;;;;;;;;;;;;;;;;;;
2021/07/07 02:18:16;;;;;;;;;2.25;2.00;;;;;17.67;60.17;100915.16;5029483;28;74524;-95
2021/07/07 02:20:55;;;;;;;;;2.25;1.50;;;;;18.15;60.38;100997.69;5012120;28;45389;-94
2021/07/07 02:23:24;;;;;;;;;3.00;2.25;;;;;18.18;60.66;101012.84;5013531;28;45364;-96
2021/07/07 02:25:52;;;;;;;;;2.25;1.75;;;;;17.63;60.26;100921.00;5011441;28;45481;-94
2021/07/07 02:28:24;;;;;;;;;3.00;3.00;;;;;17.61;60.42;100920.28;5010932;28;46798;-94
2021/07/07 02:31:00;;;;;;;;;2.00;2.00;;;;;17.57;60.46;100906.16;5011070;28;45398;-95
2021/07/07 02:33:30;;;;;;;;;3.00;3.00;;;;;17.66;60.77;100921.59;4980959;28;45415;-95
2021/07/07 02:35:58;;;;;;;;;3.25;2.00;;;;;18.05;60.34;100980.53;5011747;28;45243;-95
2021/07/07 02:38:25;;;;;;;;;3.25;2.00;;;;;17.61;60.35;100914.84;5009189;28;46939;-95
2021/07/07 02:40:57;;;;;;;;;2.75;1.50;;;;;17.97;60.32;100978.50;5009239;28;45322;-96
2021/07/07 02:43:52;;;;;;;;;;;;;;;;;;;;;
2021/07/07 02:46:25;;;;;;;;;1.75;1.75;;;;;17.74;60.70;100949.88;5027852;28;69298;-94
2021/07/07 02:49:39;;;;;;;;;;;;;;;;;;;;;
2021/07/07 02:52:29;;;;;;;;;;;;;;;;;;;;;
2021/07/07 02:58:03;;;;;;;;;3.00;2.00;;;;;17.60;61.42;100962.88;5019688;28;44943;-96
2021/07/07 03:01:26;;;;;;;;;;;;;;;;;;;;;
2021/07/07 03:03:46;;;;;;;;;3.25;3.00;;;;;17.79;61.58;100989.19;5022468;28;45473;-95
2021/07/07 03:06:12;;;;;;;;;3.75;3.00;;;;;17.36;61.76;100928.84;5005065;28;45256;-96
2021/07/07 03:08:42;;;;;;;;;3.50;3.00;;;;;17.93;61.85;101017.81;5000916;28;45517;-96
2021/07/07 03:11:09;;;;;;;;;4.00;2.00;;;;;17.69;61.64;100978.31;5001918;28;46933;-95
2021/07/07 03:13:36;;;;;;;;;2.00;2.00;;;;;17.46;61.88;100936.97;5007085;28;45464;-95
2021/07/07 03:16:06;;;;;;;;;4.00;3.00;;;;;17.70;61.25;100981.91;5006059;28;45183;-95
2021/07/07 03:18:32;;;;;;;;;2.00;2.00;;;;;17.69;61.91;100975.59;5005783;28;45416;-94
2021/07/07 03:20:58;;;;;;;;;4.00;4.00;;;;;17.46;61.74;100942.41;5002432;28;47055;-95
2021/07/07 03:23:25;;;;;;;;;3.75;2.00;;;;;17.68;61.92;100971.16;5001508;28;45292;-96
2021/07/07 03:25:53;;;;;;;;;2.75;2.75;;;;;17.51;62.61;100945.56;5003172;28;45255;-94
2021/07/07 03:28:24;;;;;;;;;2.50;2.50;;;;;17.87;61.90;100993.94;5001709;28;45350;-94
2021/07/07 03:30:53;;;;;;;;;2.00;1.00;;;;;17.45;61.96;100938.00;4985571;28;47680;-94
2021/07/07 03:33:19;;;;;;;;;3.25;2.75;;;;;17.50;62.27;100954.72;4986165;28;45395;-95
2021/07/07 03:35:45;;;;;;;;;2.00;2.00;;;;;17.80;62.23;100984.63;4985153;28;45399;-96
2021/07/07 03:38:11;;;;;;;;;2.00;2.00;;;;;17.77;61.88;100999.34;4984566;28;44987;-95
2021/07/07 03:40:38;;;;;;;;;4.25;2.00;;;;;17.96;62.54;101043.84;4995950;28;46831;-94
2021/07/07 03:43:04;;;;;;;;;4.00;2.25;;;;;17.66;62.17;100992.19;5001618;28;45485;-94
2021/07/07 03:45:30;;;;;;;;;3.00;3.00;;;;;17.40;62.16;100956.56;5001395;28;44654;-95
2021/07/07 03:47:56;;;;;;;;;4.25;3.50;;;;;17.39;62.40;100952.13;5001530;28;45363;-96
2021/07/07 03:50:23;;;;;;;;;3.25;2.25;;;;;17.44;62.46;100955.28;5019683;28;48000;-96
2021/07/07 03:52:53;;;;;;;;;4.00;3.00;;;;;17.80;62.65;100998.22;5004173;28;45379;-94
2021/07/07 03:55:22;;;;;;;;;3.00;3.00;;;;;17.42;62.07;100957.28;5006515;28;44630;-95
2021/07/07 03:57:48;;;;;;;;;2.50;2.50;;;;;17.68;62.66;100998.31;5006515;28;45190;-94
2021/07/07 04:00:22;;;;;;;;;2.25;2.00;;;;;17.80;62.82;101017.22;5010426;28;46765;-94
2021/07/07 04:02:51;;;;;;;;;5.50;4.00;;;;;17.60;62.72;100983.75;5012739;28;45249;-95
2021/07/07 04:05:16;;;;;;;;;5.00;3.00;;;;;17.22;62.77;100942.81;5025858;28;44764;-95
2021/07/07 04:07:46;;;;;;;;;2.00;2.00;;;;;17.50;63.44;101003.56;5029130;28;44876;-93
2021/07/07 04:10:20;;;;;;;;;3.00;3.00;;;;;17.33;63.33;100964.41;5021160;28;46678;-93
2021/07/07 04:12:48;;;;;;;;;3.00;3.00;;;;;17.28;63.61;100965.81;5009044;28;45507;-95
2021/07/07 04:15:15;;;;;;;;;2.00;2.00;;;;;17.29;63.33;100968.38;5010219;28;45319;-94
2021/07/07 04:17:44;;;;;;;;;5.00;3.00;;;;;17.59;63.57;101018.19;5011646;28;45337;-93
2021/07/07 04:20:15;;;;;;;;;2.00;2.00;;;;;17.84;63.25;101064.81;5010921;28;47022;-94
2021/07/07 04:22:44;;;;;;;;;2.50;2.25;;;;;17.54;63.31;101023.16;5009774;28;45334;-94
2021/07/07 04:25:14;;;;;;;;;3.25;3.00;;;;;17.79;63.57;101072.56;5008283;28;44759;-96
2021/07/07 04:27:42;;;;;;;;;4.75;4.00;;;;;17.52;63.70;101044.19;5004900;28;45430;-94
2021/07/07 04:30:11;;;;;;;;;3.25;3.25;;;;;16.98;63.90;100981.97;5005583;28;47117;-95
2021/07/07 04:32:37;;;;;;;;;3.00;3.00;;;;;17.05;64.10;101004.84;5005280;28;45372;-95
2021/07/07 04:35:09;;;;;;;;;3.25;2.75;;;;;16.97;64.41;100996.53;5005351;28;45472;-96
2021/07/07 04:37:37;;;;;;;;;4.00;4.00;;;;;17.19;64.56;101041.59;5005581;28;45268;-96
2021/07/07 04:40:10;;;;;;;;;5.50;4.75;;;;;17.10;64.49;101040.56;5005696;28;47258;-94
2021/07/07 04:42:36;;;;;;;;;4.50;3.75;;;;;17.03;64.86;101022.25;5004592;28;45262;-94
2021/07/07 04:45:07;;;;;;;;;3.75;2.00;;;;;17.38;64.89;101086.13;5006264;28;45231;-94
2021/07/07 04:47:33;;;;;;;;;3.00;2.00;;;;;16.78;64.77;100999.97;5005838;28;45403;-95
2021/07/07 04:50:01;;;;;;;;;3.00;3.00;;;;;16.71;65.06;100980.66;5005046;28;46918;-95
2021/07/07 04:52:27;;;;;;;;;4.00;3.50;;;;;16.86;64.68;100999.28;5005678;28;45180;-95
2021/07/07 04:54:52;;;;;;;;;2.00;2.00;;;;;17.10;65.11;101051.41;5005626;28;45314;-96
2021/07/07 04:57:19;;;;;;;;;7.25;4.75;;;;;16.84;64.81;101009.41;5004995;28;45462;-95
2021/07/07 04:59:47;;;;;;;;;3.25;3.25;;;;;16.78;64.83;101014.41;5022933;28;46965;-94
2021/07/07 05:02:18;;;;;;;;;6.00;4.75;;;;;17.03;65.26;101065.66;4991082;28;44945;-94
2021/07/07 05:04:49;;;;;;;;;3.00;3.00;;;;;16.90;65.43;101055.00;4989680;28;45239;-95
2021/07/07 05:07:18;;;;;;;;;3.25;2.75;;;;;16.64;65.37;101022.88;4986993;28;45388;-95
2021/07/07 05:09:44;;;;;;;;;4.75;4.00;;;;;17.10;65.38;101093.97;4996359;28;46752;-95
2021/07/07 05:12:09;;;;;;;;;4.00;4.00;;;;;16.61;65.76;101020.41;5009197;28;45473;-94
2021/07/07 05:14:35;;;;;;;;;6.00;3.50;;;;;16.90;65.91;101069.41;5015061;28;44777;-95
2021/07/07 05:17:04;;;;;;;;;4.00;4.00;;;;;16.63;65.95;101026.56;5019096;28;44946;-94
2021/07/07 05:19:33;;;;;;;;;3.25;3.25;;;;;16.63;65.69;101029.28;5031079;28;47200;-94
2021/07/07 05:21:58;;;;;;;;;6.50;3.00;;;;;16.59;65.97;101023.28;5030795;28;44961;-94
2021/07/07 05:24:27;;;;;;;;;3.25;3.25;;;;;17.18;66.18;101128.56;5021325;28;45208;-95
2021/07/07 05:26:56;;;;;;;;;3.50;3.50;;;;;16.95;66.53;101088.88;5009525;28;44858;-94
2021/07/07 05:29:21;;;;;;;;;4.50;4.00;;;;;16.92;66.37;101082.84;5007760;28;46733;-96
2021/07/07 05:31:52;;;;;;;;;3.00;3.00;;;;;16.69;66.45;101042.28;5008973;28;44726;-95
2021/07/07 05:34:20;;;;;;;;;3.50;3.50;;;;;16.99;66.42;101097.59;5011525;28;45428;-95
2021/07/07 05:36:56;;;;;;;;;;;;;;;;;;;;;
2021/07/07 05:39:25;;;;;;;;;3.00;3.00;;;;;17.19;66.65;101123.00;5028481;28;75282;-95
2021/07/07 05:41:53;;;;;;;;;5.25;4.00;;;;;16.64;66.78;101039.97;5012704;28;44923;-95
2021/07/07 05:44:25;;;;;;;;;3.00;3.00;;;;;16.69;67.13;101057.72;5011400;28;45280;-95
2021/07/07 05:46:54;;;;;;;;;3.25;2.00;;;;;17.23;67.28;101138.03;5010796;28;45439;-95
2021/07/07 05:49:30;;;;;;;;;;;;;;;;;;;;;
2021/07/07 05:52:03;;;;;;;;;6.75;4.75;;;;;17.12;67.20;101146.25;5023715;28;73507;-95
2021/07/07 05:54:30;;;;;;;;;3.75;3.75;;;;;16.95;67.42;101109.75;5010053;28;45252;-96
2021/07/07 05:56:56;;;;;;;;;5.00;5.00;;;;;16.85;67.67;101081.63;5011861;28;44858;-95
2021/07/07 05:59:25;;;;;;;;;5.00;4.00;;;;;16.79;67.88;101083.03;5011470;28;47229;-95
2021/07/07 06:01:56;;;;;;;;;3.75;2.50;;;;;17.04;67.63;101111.66;5014242;28;45036;-95
2021/07/07 06:04:24;;;;;;;;;5.00;5.00;;;;;16.87;67.98;101090.50;5021169;28;45169;-94
2021/07/07 06:06:51;;;;;;;;;5.00;4.00;;;;;16.99;68.10;101094.91;5043695;28;44905;-94
2021/07/07 06:09:22;;;;;;;;;4.75;3.00;;;;;17.24;67.80;101128.03;5022777;28;47008;-94
2021/07/07 06:11:50;;;;;;;;;5.00;4.00;;;;;16.73;68.42;101048.34;5025362;28;44896;-95
2021/07/07 06:14:16;;;;;;;;;5.25;4.00;;;;;16.80;67.77;101058.50;5025755;28;44739;-94
2021/07/07 06:16:44;;;;;;;;;5.75;4.50;;;;;17.34;67.89;101138.94;5022657;28;45558;-95
2021/07/07 06:19:15;;;;;;;;;4.50;4.50;;;;;17.30;67.91;101108.50;5021731;28;47013;-95
2021/07/07 06:21:46;;;;;;;;;5.50;3.25;;;;;17.07;67.73;101051.69;5016151;28;45030;-94
2021/07/07 06:24:14;;;;;;;;;6.25;6.25;;;;;17.13;67.73;101054.84;5009476;28;45233;-95
2021/07/07 06:26:40;;;;;;;;;6.00;4.50;;;;;17.59;68.12;101126.78;5010458;28;44908;-95
2021/07/07 06:29:11;;;;;;;;;4.00;2.25;;;;;17.76;67.48;101127.97;5009447;28;46538;-95
2021/07/07 06:31:39;;;;;;;;;6.00;3.25;;;;;17.59;67.21;101105.06;5008765;28;45236;-96
2021/07/07 06:34:05;;;;;;;;;7.00;5.00;;;;;17.77;67.55;101116.13;5009271;28;45358;-95
2021/07/07 06:36:31;;;;;;;;;3.50;2.00;;;;;17.41;67.72;101054.13;5026117;28;44776;-96
2021/07/07 06:38:56;;;;;;;;;5.25;4.00;;;;;17.69;66.66;101080.66;5025556;28;46926;-95
2021/07/07 06:41:22;;;;;;;;;3.00;2.00;;;;;18.02;66.63;101144.69;5005349;28;45625;-96
2021/07/07 06:43:48;;;;;;;;;5.50;4.75;;;;;18.00;66.95;101137.69;5021277;28;45420;-96
2021/07/07 06:46:13;;;;;;;;;4.25;4.25;;;;;17.85;66.80;101102.72;5018836;28;45188;-95
2021/07/07 06:48:39;;;;;;;;;5.25;3.25;;;;;17.94;66.25;101106.47;5004822;28;46904;-95
2021/07/07 06:51:08;;;;;;;;;4.25;4.00;;;;;17.68;66.49;101071.63;5004611;28;45399;-95
2021/07/07 06:53:37;;;;;;;;;7.50;4.50;;;;;17.68;66.18;101076.22;5006667;28;45421;-96
2021/07/07 06:56:02;;;;;;;;;2.25;2.25;;;;;17.68;65.63;101077.06;5008583;28;45387;-96
2021/07/07 06:58:28;;;;;;;;;4.25;4.25;;;;;18.04;65.80;101152.69;5006915;28;46696;-94
2021/07/07 07:00:54;;;;;;;;;4.25;4.25;;;;;17.65;65.72;101096.38;5005954;28;45229;-92
2021/07/07 07:03:19;;;;;;;;;6.00;4.25;;;;;17.69;66.17;101086.09;5005592;28;45198;-96
2021/07/07 07:05:45;;;;;;;;;4.50;4.50;;;;;17.74;66.67;101096.53;5007263;28;45386;-94
2021/07/07 07:08:13;;;;;;;;;7.25;5.25;;;;;17.81;65.97;101103.16;5005484;28;47322;-95
2021/07/07 07:10:39;;;;;;;;;6.00;4.50;;;;;17.79;65.31;101100.56;5008708;28;45524;-95
2021/07/07 07:13:07;;;;;;;;;7.75;5.00;;;;;18.04;65.96;101155.41;5012791;28;44841;-95
2021/07/07 07:15:41;;;;;;;;;5.00;4.00;;;;;17.78;65.98;101106.13;5011202;28;45416;-94
2021/07/07 07:18:13;;;;;;;;;3.00;3.00;;;;;17.78;65.42;101093.41;5010510;28;46742;-94
2021/07/07 07:20:39;;;;;;;;;6.00;6.00;;;;;18.20;65.85;101159.44;5018809;28;45494;-94
2021/07/07 07:23:08;;;;;;;;;6.25;6.00;;;;;18.39;65.58;101178.53;5038936;28;44767;-95
2021/07/07 07:25:56;;;;;;;;;7.25;4.00;;;;;18.09;65.90;101138.72;5042011;28;45270;-95
2021/07/07 07:28:52;;;;;;;;;;;;;;;;;;;;;
2021/07/07 07:31:21;;;;;;;;;5.25;4.00;;;;;18.16;64.93;101126.25;5052444;28;72230;-95
2021/07/07 07:33:49;;;;;;;;;6.25;5.50;;;;;18.06;64.68;101109.09;5034066;28;44774;-95
2021/07/07 07:36:16;;;;;;;;;5.00;4.25;;;;;17.98;64.71;101098.91;5024319;28;45338;-95
2021/07/07 07:38:48;;;;;;;;;5.00;4.00;;;;;18.66;65.11;101211.50;5013157;28;47166;-94
2021/07/07 07:41:19;;;;;;;;;5.25;5.25;;;;;18.11;65.19;101104.06;5021048;28;45192;-96
2021/07/07 07:43:53;;;;;;;;;5.00;5.00;;;;;18.25;64.95;101116.41;5025161;28;45553;-95
2021/07/07 07:46:33;;;;;;;;;8.50;6.00;;;;;18.30;65.10;101117.72;5002566;28;45540;-94
2021/07/07 07:48:59;;;;;;;;;9.00;6.00;;;;;18.47;64.55;101142.47;5007252;28;47033;-96
2021/07/07 07:51:27;;;;;;;;;5.50;5.50;;;;;18.47;65.05;101124.28;5009407;28;45238;-94
2021/07/07 07:53:53;;;;;;;;;5.50;5.50;;;;;18.76;63.82;101164.22;5010531;28;45425;-94
2021/07/07 07:56:28;;;;;;;;;5.75;4.50;;;;;18.56;63.65;101138.91;5010327;28;45310;-95
2021/07/07 07:58:56;;;;;;;;;5.75;5.75;;;;;18.80;63.58;101178.44;5013490;28;46823;-94
2021/07/07 08:01:25;;;;;;;;;5.00;5.00;;;;;18.51;63.94;101127.59;5026958;28;45032;-96
2021/07/07 08:03:53;;;;;;;;;5.25;5.25;;;;;18.86;63.34;101177.84;5028610;28;44660;-94
2021/07/07 08:06:21;;;;;;;;;7.75;6.25;;;;;18.58;62.37;101136.06;5029444;28;45420;-93
2021/07/07 08:09:05;;;;;;;;;6.25;6.25;;;;;19.02;63.09;101203.63;5024291;28;47188;-96
2021/07/07 08:11:31;;;;;;;;;6.50;6.00;;;;;18.66;62.97;101138.06;5012396;28;45409;-94
2021/07/07 08:13:57;;;;;;;;;5.75;5.00;;;;;18.99;63.27;101174.88;5007117;28;45343;-96
2021/07/07 08:16:37;;;;;;;;;4.00;4.00;;;;;18.79;63.29;101138.63;5004624;28;45414;-94
2021/07/07 08:19:08;;;;;;;;;5.50;4.00;;;;;19.07;63.02;101199.47;5023135;28;47040;-94
2021/07/07 08:21:54;;;;;;;;;;;;;;;;;;;;;
2021/07/07 08:24:25;;;;;;;;;6.50;6.50;;;;;19.01;62.87;101174.72;5045734;28;68046;-94
2021/07/07 08:26:54;;;;;;;;;5.25;4.25;;;;;18.89;62.19;101152.19;5011944;28;45422;-96
2021/07/07 08:29:20;;;;;;;;;5.75;4.50;;;;;19.17;61.78;101188.59;5011734;28;47824;-95
2021/07/07 08:31:46;;;;;;;;;4.25;4.25;;;;;19.06;62.68;101162.38;5000387;28;45730;-95
2021/07/07 08:34:14;;;;;;;;;7.50;6.00;;;;;19.00;62.07;101152.09;5011170;28;45260;-96
2021/07/07 08:36:48;;;;;;;;;14.75;14.75;;;;;19.41;61.82;101217.19;5011483;28;45407;-93
2021/07/07 08:39:32;;;;;;;;;;;;;;;;;;;;;
2021/07/07 08:42:15;;;;;;;;;36.50;34.00;;;;;19.60;62.47;101226.34;5030447;28;72952;-95
2021/07/07 08:45:07;;;;;;;;;9.75;8.25;;;;;19.33;60.96;101149.00;5014378;28;45262;-95
2021/07/07 08:47:51;;;;;;;;;;;;;;;;;;;;;
2021/07/07 08:50:31;;;;;;;;;6.50;6.25;;;;;19.43;60.40;101171.63;5029216;28;75281;-95
2021/07/07 08:53:01;;;;;;;;;6.00;6.00;;;;;19.76;60.57;101225.69;5012490;28;45531;-94
2021/07/07 08:55:30;;;;;;;;;7.50;6.50;;;;;19.56;60.58;101173.16;5011532;28;45386;-95
2021/07/07 08:58:00;;;;;;;;;5.75;5.75;;;;;19.61;61.22;101177.16;5009572;28;45283;-95
2021/07/07 09:00:37;;;;;;;;;5.25;5.25;;;;;19.55;59.23;101172.31;4994922;28;46961;-95
2021/07/07 09:03:14;;;;;;;;;5.00;5.00;;;;;19.46;59.65;101181.34;4996107;28;45624;-96
2021/07/07 09:06:06;;;;;;;;;;;;;;;;;;;;;
2021/07/07 09:08:59;;;;;;;;;;;;;;;;;;;;;
2021/07/07 09:11:56;;;;;;;;;;;;;;;;;;;;;
2021/07/07 09:15:19;;;;;;;;;;;;;;;;;;;;;
2021/07/07 09:18:24;;;;;;;;;;;;;;;;;;;;;
2021/07/07 09:20:53;;;;;;;;;7.00;6.00;;;;;20.36;59.29;101249.00;5024039;28;69266;-95
2021/07/07 09:23:32;;;;;;;;;5.25;5.25;;;;;20.74;57.88;101269.75;5010948;28;47182;-95
2021/07/07 09:26:02;;;;;;;;;6.25;6.25;;;;;20.41;58.39;101200.34;5023246;28;45531;-96
2021/07/07 09:28:34;;;;;;;;;5.75;5.75;;;;;20.49;58.42;101199.56;5030411;28;45338;-95
2021/07/07 09:31:18;;;;;;;;;;;;;;;;;;;;;
2021/07/07 09:33:55;;;;;;;;;8.50;7.25;;;;;20.55;57.78;101202.53;5046259;28;74485;-95
2021/07/07 09:36:30;;;;;;;;;6.75;6.75;;;;;20.67;57.24;101219.56;5030859;28;45714;-95
2021/07/07 09:39:01;;;;;;;;;6.25;6.25;;;;;20.43;57.54;101198.31;5028313;28;45509;-95
2021/07/07 09:41:33;;;;;;;;;7.00;7.00;;;;;20.66;57.52;101242.38;5030702;28;45198;-96
2021/07/07 09:44:17;;;;;;;;;;;;;;;;;;;;;
2021/07/07 09:47:03;;;;;;;;;;;;;;;;;;;;;
2021/07/07 09:49:37;;;;;;;;;5.00;4.75;;;;;20.93;58.41;101217.94;5026158;28;68101;-95
2021/07/07 09:52:18;;;;;;;;;;;;;;;;;;;;;
2021/07/07 09:54:52;;;;;;;;;5.75;5.00;;;;;21.32;57.07;101245.75;5011295;28;74773;-95
2021/07/07 09:57:50;;;;;;;;;4.00;4.00;;;;;21.34;56.20;101259.22;5009629;28;45533;-96
2021/07/07 10:00:37;;;;;;;;;7.75;6.00;;;;;20.94;55.52;101186.88;5008576;28;45351;-96
2021/07/07 10:03:06;;;;;;;;;7.75;5.75;;;;;20.89;56.03;101193.66;5007353;28;44814;-96
2021/07/07 10:05:40;;;;;;;;;6.00;4.25;;;;;20.69;56.07;101192.94;5011194;28;47156;-94
2021/07/07 10:08:14;;;;;;;;;3.75;3.75;;;;;20.72;56.14;101206.28;5010249;28;44920;-95
2021/07/07 10:10:51;;;;;;;;;4.75;4.75;;;;;20.53;55.78;101196.38;5008359;28;45393;-95
2021/07/07 10:13:30;;;;;;;;;;;;;;;;;;;;;
2021/07/07 10:16:18;;;;;;;;;7.25;4.50;;;;;20.83;56.77;101253.47;5021456;28;73981;-95
2021/07/07 10:18:56;;;;;;;;;6.00;4.25;;;;;20.51;55.92;101201.13;5004724;28;45246;-95
2021/07/07 10:24:26;;;;;;;;;6.25;5.00;;;;;20.83;57.11;101237.97;4998051;28;45430;-95
2021/07/07 10:33:39;;;;;;;;;5.00;5.00;;;;;20.44;57.86;101191.84;4942765;28;45468;-95
2021/07/07 10:36:28;;;;;;;;;5.25;5.00;;;;;20.72;58.24;101219.91;4944470;28;45605;-95
2021/07/07 10:39:33;;;;;;;;;;;;;;;;;;;;;
2021/07/07 10:42:47;;;;;;;;;;;;;;;;;;;;;
2021/07/07 10:46:32;;;;;;;;;;;;;;;;;;;;;
2021/07/07 10:49:23;;;;;;;;;8.75;5.50;;;;;21.58;55.11;101276.84;4934660;28;69265;-95
2021/07/07 10:52:42;;;;;;;;;;;;;;;;;;;;;
2021/07/07 10:55:43;;;;;;;;;4.00;4.00;;;;;21.54;56.05;101287.22;4939797;28;72978;-95
2021/07/07 10:58:42;;;;;;;;;8.50;7.75;;;;;21.56;56.04;101249.66;4939929;28;45272;-95
2021/07/07 11:05:22;;;;;;;;;;;;;;;;;;;;;
2021/07/07 11:08:26;;;;;;;;;;;;;;;;;;;;;
2021/07/07 11:11:02;;;;;;;;;7.00;6.50;;;;;21.95;55.85;101224.69;4965458;28;68211;-95
2021/07/07 11:14:08;;;;;;;;;;;;;;;;;;;;;
2021/07/07 11:16:55;;;;;;;;;6.00;6.00;;;;;22.47;52.11;101255.69;4968032;28;74573;-95
2021/07/07 11:22:44;;;;;;;;;;;;;;;;;;;;;
2021/07/07 11:25:34;;;;;;;;;;;;;;;;;;;;;
2021/07/07 11:28:15;;;;;;;;;;;;;;;;;;;;;
2021/07/07 11:30:48;;;;;;;;;6.00;6.00;;;;;22.46;51.75;101296.91;4966571;28;72980;-95
2021/07/07 11:33:51;;;;;;;;;;;;;;;;;;;;;
2021/07/07 11:36:50;;;;;;;;;;;;;;;;;;;;;
2021/07/07 11:42:59;;;;;;;;;4.25;4.25;;;;;21.30;54.35;101220.47;4936064;28;44931;-96
2021/07/07 11:45:46;;;;;;;;;;;;;;;;;;;;;
2021/07/07 11:48:42;;;;;;;;;4.00;4.00;;;;;21.61;53.22;101291.06;4949512;28;69860;-95
2021/07/07 11:54:46;;;;;;;;;2.00;2.00;;;;;21.51;54.42;101303.94;4954230;28;44790;-95
2021/07/07 11:57:51;;;;;;;;;;;;;;;;;;;;;
2021/07/07 12:00:38;;;;;;;;;4.75;3.25;;;;;21.43;55.80;101303.88;4942645;28;69353;-95
2021/07/07 12:03:16;;;;;;;;;;;;;;;;;;;;;
2021/07/07 12:09:07;;;;;;;;;4.50;4.50;;;;;20.91;57.26;101229.84;4937755;28;44796;-93
2021/07/07 12:12:56;;;;;;;;;;;;;;;;;;;;;
2021/07/07 12:19:13;;;;;;;;;;;;;;;;;;;;;
2021/07/07 12:40:45;;;;;;;;;;;;;;;;;;;;;
2021/07/07 12:44:09;;;;;;;;;;;;;;;;;;;;;
2021/07/07 12:47:10;;;;;;;;;;;;;;;;;;;;;
2021/07/07 13:06:11;;;;;;;;;6.25;5.75;;;;;20.07;67.60;101264.50;5617864;22;15198242;-94
2021/07/07 13:10:16;;;;;;;;;;;;;;;;;;;;;
2021/07/07 13:12:49;;;;;;;;;;;;;;;;;;;;;
2021/07/07 13:15:42;;;;;;;;;;;;;;;;;;;;;
2021/07/07 13:18:26;;;;;;;;;5.00;4.25;;;;;20.40;66.64;101244.97;6101469;23;70120;-94
2021/07/07 13:21:09;;;;;;;;;6.50;5.00;;;;;20.52;66.92;101248.38;6076137;23;47816;-95
2021/07/07 13:24:09;;;;;;;;;8.50;8.50;;;;;20.94;65.47;101307.00;6076825;23;45369;-95
2021/07/07 13:27:20;;;;;;;;;7.25;5.50;;;;;20.96;64.78;101297.63;6075982;23;45426;-93
2021/07/07 13:33:14;;;;;;;;;;;;;;;;;;;;;
2021/07/07 13:35:40;;;;;;;;;4.75;4.25;;;;;20.72;66.44;101236.28;6099875;23;72179;-96
2021/07/07 13:38:31;;;;;;;;;;;;;;;;;;;;;
2021/07/07 13:41:28;;;;;;;;;5.25;4.50;;;;;20.77;64.58;101211.28;6100235;23;69288;-95
2021/07/07 13:44:15;;;;;;;;;;;;;;;;;;;;;
2021/07/07 13:47:27;;;;;;;;;5.50;4.75;;;;;21.55;62.46;101327.19;6203530;22;72137;-94
2021/07/07 13:50:47;;;;;;;;;;;;;;;;;;;;;
2021/07/07 13:53:29;;;;;;;;;;;;;;;;;;;;;
2021/07/07 13:57:00;;;;;;;;;;;;;;;;;;;;;
2021/07/07 13:59:38;;;;;;;;;6.25;5.00;;;;;20.95;61.73;101229.56;6194773;23;72371;-93
2021/07/07 14:05:56;;;;;;;;;;;;;;;;;;;;;
2021/07/07 14:09:15;;;;;;;;;;;;;;;;;;;;;
2021/07/07 14:12:19;;;;;;;;;5.00;5.00;;;;;21.31;61.90;101301.38;6082878;23;72063;-94
2021/07/07 14:14:55;;;;;;;;;3.25;3.25;;;;;21.51;63.13;101334.00;6065911;23;44759;-91
2021/07/07 14:17:50;;;;;;;;;6.25;6.25;;;;;21.57;60.76;101327.91;6061563;23;45492;-92
2021/07/07 14:20:21;;;;;;;;;7.00;6.00;;;;;21.02;60.47;101242.41;6048064;23;47031;-95
2021/07/07 14:23:20;;;;;;;;;;;;;;;;;;;;;
2021/07/07 14:26:19;;;;;;;;;;;;;;;;;;;;;
2021/07/07 14:28:59;;;;;;;;;5.00;5.00;;;;;20.99;60.83;101226.34;6041755;23;69265;-94
2021/07/07 14:31:59;;;;;;;;;3.25;3.25;;;;;21.10;60.21;101241.63;6019591;23;47040;-93
2021/07/07 14:34:49;;;;;;;;;;;;;;;;;;;;;
2021/07/07 14:40:31;;;;;;;;;3.75;3.75;;;;;21.28;58.07;101268.91;6094654;23;45532;-92
2021/07/07 14:43:05;;;;;;;;;2.75;2.75;;;;;21.10;56.93;101238.06;6070598;23;46733;-94
2021/07/07 14:45:36;;;;;;;;;2.50;2.00;;;;;21.38;57.51;101276.19;6069935;23;45545;-96
2021/07/07 14:48:21;;;;;;;;;2.75;2.75;;;;;21.50;56.56;101286.69;6141862;22;45265;-92
2021/07/07 14:51:09;;;;;;;;;3.00;2.50;;;;;21.12;54.66;101215.03;6192417;22;44735;-91
2021/07/07 14:53:40;;;;;;;;;3.25;3.25;;;;;21.23;55.18;101224.00;6172282;22;46829;-94
2021/07/07 14:56:06;;;;;;;;;2.50;2.50;;;;;21.51;55.37;101271.16;6189861;22;45429;-94
2021/07/07 14:58:40;;;;;;;;;3.00;3.00;;;;;21.58;54.99;101274.13;6189120;22;44624;-92
2021/07/07 15:01:09;;;;;;;;;4.00;4.00;;;;;21.80;55.17;101300.09;6185995;22;45285;-91
2021/07/07 15:04:22;;;;;;;;;4.00;2.75;;;;;21.44;54.65;101240.91;6268632;22;46998;-91
2021/07/07 15:11:25;;;;;;;;;;;;;;;;;;;;;
2021/07/07 15:14:04;;;;;;;;;;;;;;;;;;;;;
2021/07/07 15:17:19;;;;;;;;;;;;;;;;;;;;;
2021/07/07 15:20:18;;;;;;;;;2.00;2.00;;;;;22.08;55.38;101319.06;6176843;23;72121;-93
2021/07/07 15:22:43;;;;;;;;;2.00;2.00;;;;;21.49;55.16;101213.09;6196204;22;45361;-94
2021/07/07 15:25:13;;;;;;;;;5.25;2.25;;;;;21.94;55.81;101287.69;6164598;23;45528;-94
2021/07/07 15:27:46;;;;;;;;;3.00;3.00;;;;;21.97;55.60;101284.66;6165249;23;46972;-95